Terminal Aerodrome Forecast
Issued by NWS

Home | Current Version | Previous Version | Text Only | Print | Product List | Glossary On
Versions: 1 2 3 4 5 6 7 8 9 10 11 12 13 14 15 16 17 18 19 20
000
FTUS46 KMFR 212321
TAFOTH
TAF
KOTH 212321Z 2200/2224 20012G20KT P6SM -RA SCT040 OVC080
      WS020/20050KT
     FM220200 19008KT P6SM -RA OVC040 WS020/20050KT
     FM220400 VRB03KT P6SM -RA SCT020 OVC040 WS020/20050KT
     FM220700 15005KT P6SM -RA SCT020 OVC035 WS020/20045KT
     FM221800 16008KT P6SM SCT025 OVC040=

USA.gov is the U.S. government's official web portal to all federal, state and local government web resources and services.